Time;durP1;ratioP1;P1;durP2;ratioP2;P2;SDS_P1;SDS_P2;PMS_P1;PMS_P2;Temp;Humidity;BMP_temperature;BMP_pressure;BME280_temperature;BME280_humidity;BME280_pressure;Samples;Min_cycle;Max_cycle;Signal;HPM_P1;HPM_P2
2021/11/30 00:03:00;;;;;;;11.60;10.50;;;;;;;5.82;58.83;97503.69;8218919;28;20533;-86
2021/11/30 00:07:04;;;;;;;12.50;11.00;;;;;;;5.95;58.74;97512.72;8219230;28;20239;-85
2021/11/30 00:11:10;;;;;;;12.07;10.87;;;;;;;5.87;58.80;97512.94;8218648;28;20382;-85
2021/11/30 00:15:13;;;;;;;11.57;10.47;;;;;;;5.82;58.65;97516.53;8218922;28;20245;-84
2021/11/30 00:19:16;;;;;;;11.43;10.33;;;;;;;5.85;58.91;97506.19;8219291;28;20419;-85
2021/11/30 00:23:20;;;;;;;11.23;10.23;;;;;;;5.73;59.27;97507.41;8218558;28;20239;-83
2021/11/30 00:27:26;;;;;;;10.67;9.67;;;;;;;5.78;59.32;97517.53;8218645;28;20243;-84
2021/11/30 00:31:29;;;;;;;11.13;10.03;;;;;;;5.95;59.10;97517.84;8218530;28;20241;-84
2021/11/30 00:35:33;;;;;;;10.87;9.97;;;;;;;5.89;58.92;97512.91;8218733;28;20564;-84
2021/11/30 00:39:36;;;;;;;11.07;10.07;;;;;;;5.96;59.22;97516.97;8218542;28;20230;-86
2021/11/30 00:43:41;;;;;;;10.83;9.90;;;;;;;6.04;58.77;97532.16;8217586;28;20551;-86
2021/11/30 00:47:49;;;;;;;11.30;10.40;;;;;;;6.00;59.27;97528.00;8218559;28;20234;-86
2021/11/30 00:51:55;;;;;;;11.17;10.20;;;;;;;5.95;58.88;97511.84;8217557;28;20241;-86
2021/11/30 00:55:58;;;;;;;11.33;10.23;;;;;;;5.98;59.24;97510.06;8218886;28;20621;-86
2021/11/30 01:00:05;;;;;;;9.63;8.77;;;;;;;5.95;59.42;97520.44;8233739;28;20463;-86
2021/11/30 01:04:10;;;;;;;10.90;9.87;;;;;;;5.75;60.30;97508.22;8218019;28;20234;-86
2021/11/30 01:08:13;;;;;;;10.80;9.80;;;;;;;5.94;59.45;97523.88;8219760;28;20243;-86
2021/11/30 01:12:16;;;;;;;10.33;9.43;;;;;;;5.98;59.02;97538.34;8216831;28;20245;-86
2021/11/30 01:16:21;;;;;;;10.60;9.60;;;;;;;5.98;59.17;97533.19;8218118;28;20243;-87
2021/11/30 01:20:26;;;;;;;10.40;9.40;;;;;;;6.10;58.67;97524.22;8217096;28;20250;-87
2021/11/30 01:24:29;;;;;;;11.00;10.00;;;;;;;5.96;59.03;97526.41;8217789;28;20234;-87
2021/11/30 01:28:33;;;;;;;10.27;9.37;;;;;;;5.86;59.54;97521.56;8217911;28;20290;-87
2021/11/30 01:32:39;;;;;;;10.80;9.80;;;;;;;5.81;59.80;97533.69;8217463;28;20253;-87
2021/11/30 01:36:42;;;;;;;11.00;10.00;;;;;;;5.85;59.21;97530.13;8217696;28;20247;-87
2021/11/30 01:40:46;;;;;;;10.50;9.50;;;;;;;6.10;58.97;97538.81;8216301;28;20289;-86
2021/11/30 01:44:51;;;;;;;11.03;9.93;;;;;;;5.90;59.41;97518.88;8218141;28;20238;-87
2021/11/30 01:53:26;;;;;;;9.30;8.50;;;;;;;5.86;59.85;97501.00;8226844;28;20367;-87
2021/11/30 01:57:29;;;;;;;9.50;8.60;;;;;;;5.99;59.69;97511.72;8253643;28;20237;-85
2021/11/30 02:01:33;;;;;;;8.77;7.97;;;;;;;6.02;59.43;97501.34;8236729;28;20253;-85
2021/11/30 02:05:40;;;;;;;8.77;7.97;;;;;;;6.03;59.70;97497.03;8252472;28;20417;-85
2021/11/30 02:09:44;;;;;;;9.20;8.30;;;;;;;5.65;61.11;97502.53;8253824;28;20242;-85
2021/11/30 02:13:48;;;;;;;9.27;8.43;;;;;;;5.81;60.40;97499.47;8253884;28;20555;-85
2021/11/30 02:17:52;;;;;;;9.10;8.20;;;;;;;5.88;60.26;97490.63;8253516;28;20242;-85
2021/11/30 02:21:57;;;;;;;8.83;8.03;;;;;;;5.62;61.37;97481.22;8252420;28;20234;-86
2021/11/30 02:26:05;;;;;;;9.97;7.97;;;;;;;5.88;60.19;97472.66;8252849;28;20248;-87
2021/11/30 02:30:09;;;;;;;9.50;7.63;;;;;;;5.77;60.55;97485.00;8252438;28;20340;-87
2021/11/30 02:34:13;;;;;;;7.43;6.73;;;;;;;5.43;61.73;97475.84;8251849;28;20238;-87
2021/11/30 02:38:18;;;;;;;6.90;6.30;;;;;;;5.73;61.17;97480.88;8253630;28;20246;-87
2021/11/30 02:42:22;;;;;;;6.63;6.03;;;;;;;5.48;61.58;97474.81;8253413;28;20246;-86
2021/11/30 02:46:33;;;;;;;7.63;6.30;;;;;;;5.34;61.88;97471.00;8252808;28;20234;-87
2021/11/30 02:50:41;;;;;;;6.50;5.30;;;;;;;5.55;61.66;97470.31;8252931;28;20245;-88
2021/11/30 02:54:48;;;;;;;6.93;5.50;;;;;;;5.32;62.17;97470.19;8252938;28;20245;-89
2021/11/30 02:58:52;;;;;;;6.37;5.53;;;;;;;5.51;62.21;97466.16;8251204;28;20448;-88
2021/11/30 03:02:55;;;;;;;9.00;5.93;;;;;;;5.13;62.78;97464.78;8250914;28;20533;-89
2021/11/30 03:06:59;;;;;;;6.07;5.47;;;;;;;5.37;62.40;97473.44;8250896;28;20356;-90
2021/11/30 03:11:03;;;;;;;5.60;4.97;;;;;;;5.39;61.81;97464.00;8251990;28;20248;-89
2021/11/30 03:15:08;;;;;;;5.50;4.83;;;;;;;5.48;61.95;97463.69;8234835;28;20234;-88
2021/11/30 03:19:12;;;;;;;5.47;4.37;;;;;;;5.53;61.71;97460.97;8252063;28;20238;-89
2021/11/30 03:23:15;;;;;;;4.93;4.07;;;;;;;5.27;62.52;97467.75;8250419;28;20242;-87
2021/11/30 03:27:21;;;;;;;5.73;4.13;;;;;;;5.21;62.70;97460.25;8250127;28;20237;-87
2021/11/30 03:31:34;;;;;;;4.00;3.70;;;;;;;5.33;62.50;97459.03;8251221;28;20306;-87
2021/11/30 03:35:37;;;;;;;3.83;3.53;;;;;;;5.22;62.22;97467.09;8251250;28;20239;-87
2021/11/30 03:39:41;;;;;;;4.20;3.80;;;;;;;5.09;63.13;97457.16;8249786;28;20237;-85
2021/11/30 03:43:46;;;;;;;3.77;3.47;;;;;;;5.17;62.93;97450.97;8250823;28;20234;-85
2021/11/30 03:47:50;;;;;;;4.50;4.03;;;;;;;5.15;62.17;97432.22;8250802;28;20253;-85
2021/11/30 03:51:53;;;;;;;4.07;3.60;;;;;;;5.71;61.01;97446.69;8250718;28;20246;-84
2021/11/30 03:55:56;;;;;;;4.50;4.10;;;;;;;5.48;61.43;97438.84;8249160;28;20333;-84
2021/11/30 04:00:05;;;;;;;4.47;4.07;;;;;;;5.37;61.57;97440.94;8250687;28;20233;-83
2021/11/30 04:04:21;;;;;;;7.03;4.50;;;;;;;5.15;62.35;97460.44;8225856;28;20231;-84
2021/11/30 04:08:24;;;;;;;5.97;3.80;;;;;;;5.13;61.55;97460.50;8219053;28;20305;-84
2021/11/30 04:12:27;;;;;;;6.23;4.60;;;;;;;5.23;61.97;97436.19;8217285;28;20239;-84
2021/11/30 04:16:32;;;;;;;5.17;4.27;;;;;;;5.16;61.69;97445.00;8218056;28;20234;-84
2021/11/30 04:20:36;;;;;;;6.53;4.87;;;;;;;5.14;62.15;97444.22;8218313;28;20338;-82
2021/11/30 04:24:40;;;;;;;8.20;4.20;;;;;;;5.14;61.50;97449.34;8217900;28;20234;-84
2021/11/30 04:28:44;;;;;;;7.37;4.30;;;;;;;4.88;61.89;97439.88;8217772;28;20549;-83
2021/11/30 04:32:49;;;;;;;8.10;4.37;;;;;;;5.24;60.84;97443.03;8218926;28;20234;-83
2021/11/30 04:36:52;;;;;;;5.70;3.90;;;;;;;5.43;60.60;97450.16;8216742;28;20314;-83
2021/11/30 04:40:55;;;;;;;6.67;4.50;;;;;;;5.33;60.25;97446.19;8217287;28;20238;-83
2021/11/30 04:45:04;;;;;;;6.33;4.33;;;;;;;5.35;60.26;97434.13;8217151;28;20238;-83
2021/11/30 04:49:14;;;;;;;9.70;4.60;;;;;;;5.16;60.32;97433.88;8232556;28;20242;-83
2021/11/30 04:53:19;;;;;;;7.70;4.27;;;;;;;5.16;60.63;97421.91;8216812;28;20239;-84
2021/11/30 04:57:23;;;;;;;11.53;4.40;;;;;;;5.16;60.26;97427.03;8215551;28;20239;-83
2021/11/30 05:01:26;;;;;;;6.23;4.10;;;;;;;5.33;59.89;97435.91;8215107;28;20247;-83
2021/11/30 05:05:31;;;;;;;4.67;3.70;;;;;;;5.18;60.06;97422.69;8214207;28;20613;-84
2021/11/30 05:09:35;;;;;;;9.30;4.17;;;;;;;5.05;59.42;97416.25;8248332;28;20234;-82
2021/11/30 05:13:39;;;;;;;8.43;4.30;;;;;;;5.22;59.24;97410.59;8248255;28;20226;-82
2021/11/30 05:17:42;;;;;;;5.80;3.70;;;;;;;5.37;58.43;97406.69;8247038;28;20237;-84
2021/11/30 05:21:47;;;;;;;4.93;3.37;;;;;;;5.16;58.94;97406.50;8248698;28;20252;-84
2021/11/30 05:25:50;;;;;;;6.00;3.40;;;;;;;5.11;59.42;97392.97;8249807;28;20234;-84
2021/11/30 05:29:54;;;;;;;6.10;3.30;;;;;;;5.31;58.16;97396.63;8255034;28;20450;-84
2021/11/30 05:33:59;;;;;;;7.50;3.70;;;;;;;5.10;58.83;97388.69;8254808;28;20265;-83
2021/11/30 05:38:04;;;;;;;6.10;3.37;;;;;;;4.99;58.61;97398.47;8256291;28;20570;-83
2021/11/30 05:42:08;;;;;;;7.97;3.60;;;;;;;4.94;58.79;97403.75;8257383;28;20241;-83
2021/11/30 05:46:11;;;;;;;5.27;3.17;;;;;;;5.24;58.22;97388.28;8256101;28;20238;-83
2021/11/30 05:50:15;;;;;;;8.40;3.90;;;;;;;5.10;58.37;97375.88;8254589;28;20280;-82
2021/11/30 05:54:19;;;;;;;6.53;3.53;;;;;;;5.31;58.57;97381.22;8254188;28;20428;-83
2021/11/30 05:58:40;;;;;;;4.77;3.10;;;;;;;5.02;58.83;97353.00;8254004;28;20457;-81
2021/11/30 06:07:10;;;;;;;5.73;3.40;;;;;;;5.26;59.60;97364.22;8236575;28;20230;-83
2021/11/30 06:11:16;;;;;;;5.50;3.17;;;;;;;5.14;59.88;97354.38;8235500;28;20342;-82
2021/11/30 06:15:20;;;;;;;4.87;3.20;;;;;;;5.23;60.17;97348.09;8229927;28;20226;-83
2021/11/30 06:19:23;;;;;;;5.87;3.30;;;;;;;5.12;60.57;97345.84;8253856;28;20242;-83
2021/11/30 06:23:27;;;;;;;4.47;3.00;;;;;;;5.22;60.42;97336.97;8253465;28;20230;-83
2021/11/30 06:27:31;;;;;;;4.37;3.10;;;;;;;5.17;60.53;97344.00;8239425;28;20226;-81
2021/11/30 06:31:34;;;;;;;4.80;3.20;;;;;;;5.22;61.10;97342.13;8233458;28;20421;-80
2021/11/30 06:35:38;;;;;;;4.30;2.63;;;;;;;5.16;60.76;97319.22;8230554;28;20258;-84
2021/11/30 06:39:41;;;;;;;4.43;2.60;;;;;;;5.14;60.38;97305.59;8231776;28;20234;-85
2021/11/30 06:43:46;;;;;;;5.87;2.80;;;;;;;5.10;61.32;97321.97;8239036;28;20230;-83
2021/11/30 06:47:49;;;;;;;4.07;2.90;;;;;;;4.91;62.15;97306.31;8221144;28;20239;-84
2021/11/30 06:51:53;;;;;;;3.67;2.73;;;;;;;5.02;61.84;97306.00;8248770;28;20238;-85
2021/11/30 06:55:56;;;;;;;4.07;2.30;;;;;;;5.09;61.29;97302.34;8251682;28;20238;-84
2021/11/30 07:00:03;;;;;;;3.37;2.83;;;;;;;5.21;61.10;97298.53;8251994;28;20326;-84
2021/11/30 07:04:07;;;;;;;3.33;2.53;;;;;;;5.09;61.72;97292.91;8243702;28;20513;-84
2021/11/30 07:08:19;;;;;;;2.90;2.50;;;;;;;4.88;62.27;97283.34;8238417;28;20294;-86
2021/11/30 07:12:46;;;;;;;2.30;2.03;;;;;;;4.76;61.98;97271.75;8238567;28;20247;-85
2021/11/30 07:16:51;;;;;;;2.83;2.30;;;;;;;4.95;62.07;97266.88;8232024;28;20242;-86
2021/11/30 07:20:55;;;;;;;2.67;2.00;;;;;;;5.09;61.82;97259.53;8226422;28;20253;-85
2021/11/30 07:25:00;;;;;;;3.73;1.93;;;;;;;5.12;61.43;97253.44;8219809;28;20243;-84
2021/11/30 07:29:04;;;;;;;1.93;1.70;;;;;;;4.77;62.46;97244.38;8220210;28;20380;-84
2021/11/30 07:33:09;;;;;;;2.30;1.97;;;;;;;4.91;62.03;97239.63;8217910;28;20254;-84
2021/11/30 07:37:12;;;;;;;1.83;1.50;;;;;;;4.83;62.23;97228.78;8218593;28;20243;-84
2021/11/30 07:41:17;;;;;;;2.07;1.70;;;;;;;4.84;62.06;97218.47;8218707;28;20241;-84
2021/11/30 07:45:20;;;;;;;3.03;1.90;;;;;;;4.99;61.87;97201.72;8218658;28;20342;-84
2021/11/30 07:49:25;;;;;;;2.10;1.73;;;;;;;4.84;61.75;97203.06;8217918;28;20250;-85
2021/11/30 07:53:28;;;;;;;1.70;1.50;;;;;;;4.92;62.30;97207.13;8218236;28;20294;-85
2021/11/30 07:57:32;;;;;;;3.87;2.43;;;;;;;4.89;62.20;97196.06;8218297;28;20561;-83
2021/11/30 08:01:35;;;;;;;2.40;1.67;;;;;;;5.03;61.76;97192.19;8230137;28;20234;-84
2021/11/30 08:05:41;;;;;;;1.80;1.40;;;;;;;4.89;62.50;97183.25;8250793;28;20464;-84
2021/11/30 08:09:44;;;;;;;2.63;1.37;;;;;;;4.77;61.85;97180.25;8254868;28;20246;-83
2021/11/30 08:13:47;;;;;;;1.63;1.50;;;;;;;4.96;61.46;97185.59;8249518;28;20234;-83
2021/11/30 08:17:50;;;;;;;1.87;1.30;;;;;;;4.79;61.56;97173.34;8250317;28;20246;-83
2021/11/30 08:21:55;;;;;;;1.50;1.30;;;;;;;4.88;61.66;97179.00;8250340;28;20525;-83
2021/11/30 08:25:58;;;;;;;1.70;1.20;;;;;;;4.61;62.68;97175.63;8250378;28;20400;-83
2021/11/30 08:30:01;;;;;;;1.60;1.40;;;;;;;4.76;62.70;97173.44;8248057;28;20262;-83
2021/11/30 08:34:05;;;;;;;1.40;1.20;;;;;;;4.72;62.65;97167.56;8250216;28;20234;-82
2021/11/30 08:38:10;;;;;;;1.30;1.20;;;;;;;4.42;64.12;97160.00;8216096;28;20347;-83
2021/11/30 08:42:13;;;;;;;1.33;1.20;;;;;;;4.63;63.86;97163.59;8217533;28;20319;-83
2021/11/30 08:46:17;;;;;;;1.73;1.30;;;;;;;4.54;63.01;97153.63;8217012;28;20249;-83
2021/11/30 08:50:21;;;;;;;1.20;1.10;;;;;;;4.18;64.16;97145.41;8217068;28;20514;-82
2021/11/30 08:54:26;;;;;;;1.50;1.40;;;;;;;4.77;62.98;97134.06;8217216;28;20494;-81
2021/11/30 08:58:29;;;;;;;2.50;1.23;;;;;;;4.55;63.64;97150.19;8217813;28;20238;-81
2021/11/30 09:02:33;;;;;;;1.10;1.00;;;;;;;4.56;63.38;97145.91;8216804;28;20401;-82
2021/11/30 09:06:36;;;;;;;1.57;1.00;;;;;;;4.62;63.29;97154.22;8217168;28;20246;-81
2021/11/30 09:10:43;;;;;;;1.60;1.30;;;;;;;4.60;63.28;97135.47;8215168;28;20247;-81
2021/11/30 09:14:46;;;;;;;1.20;1.10;;;;;;;4.82;62.78;97142.47;8216580;28;20242;-82
2021/11/30 09:18:51;;;;;;;1.37;1.10;;;;;;;4.70;62.78;97130.88;8215637;28;20238;-82
2021/11/30 09:22:54;;;;;;;1.27;1.17;;;;;;;4.51;63.18;97130.66;8216428;28;20242;-81
2021/11/30 09:26:59;;;;;;;2.00;1.50;;;;;;;4.63;63.18;97129.44;8216063;28;20235;-81
2021/11/30 09:31:03;;;;;;;1.53;1.43;;;;;;;4.73;63.53;97124.81;8216087;28;20249;-81
2021/11/30 09:35:18;;;;;;;1.53;1.20;;;;;;;4.98;62.34;97117.09;8215833;28;20241;-81
2021/11/30 09:39:21;;;;;;;1.13;1.00;;;;;;;4.75;62.44;97095.66;8215763;28;20242;-82
2021/11/30 09:43:26;;;;;;;0.97;0.97;;;;;;;4.49;63.26;97101.66;8216100;28;20568;-81
2021/11/30 09:47:30;;;;;;;1.13;1.00;;;;;;;4.62;63.20;97102.09;8216096;28;20386;-83
2021/11/30 09:51:34;;;;;;;1.17;1.00;;;;;;;4.33;63.64;97090.25;8214776;28;20277;-81
2021/11/30 09:55:39;;;;;;;4.00;0.90;;;;;;;4.47;63.96;97083.78;8215921;28;20434;-84
2021/11/30 09:59:47;;;;;;;0.77;0.77;;;;;;;4.78;62.91;97066.47;8215969;28;20243;-84
2021/11/30 10:03:50;;;;;;;0.80;0.80;;;;;;;4.69;64.00;97071.03;8215462;28;20239;-83
2021/11/30 10:07:54;;;;;;;0.73;0.73;;;;;;;4.54;64.13;97058.75;8219025;28;20331;-84
2021/11/30 10:11:59;;;;;;;0.80;0.80;;;;;;;4.44;64.44;97049.72;8220054;28;20258;-86
2021/11/30 10:16:05;;;;;;;0.83;0.70;;;;;;;4.66;63.90;97048.09;8225602;28;20234;-84
2021/11/30 10:20:11;;;;;;;1.20;0.90;;;;;;;4.29;64.71;97036.53;8241702;28;20234;-83
2021/11/30 10:24:20;;;;;;;0.90;0.90;;;;;;;4.57;64.08;97043.28;8227621;28;20242;-84
2021/11/30 10:28:27;;;;;;;2.57;2.03;;;;;;;4.56;64.10;97031.34;8228361;28;20439;-83
2021/11/30 10:32:36;;;;;;;1.00;0.80;;;;;;;4.67;63.90;97025.84;8227406;28;20338;-83
2021/11/30 10:36:48;;;;;;;3.33;1.70;;;;;;;4.41;64.20;97006.22;8227465;28;20240;-85
2021/11/30 10:40:51;;;;;;;1.70;1.20;;;;;;;4.52;65.18;97013.56;8228682;28;20294;-83
2021/11/30 10:44:57;;;;;;;2.43;1.80;;;;;;;4.47;65.22;97017.13;8228177;28;20242;-88
2021/11/30 10:49:02;;;;;;;1.00;0.70;;;;;;;4.39;64.77;97005.47;8222256;28;20314;-85
2021/11/30 10:53:16;;;;;;;0.70;0.67;;;;;;;4.40;64.58;97002.84;8223482;28;20247;-89
2021/11/30 10:57:28;;;;;;;1.87;1.40;;;;;;;4.75;64.27;96992.22;8221750;28;20302;-84
2021/11/30 11:01:32;;;;;;;1.20;1.00;;;;;;;4.40;64.86;96997.72;8221262;28;20235;-86
2021/11/30 11:05:39;;;;;;;0.80;0.60;;;;;;;4.32;64.89;96999.69;8220162;28;20246;-86
2021/11/30 11:09:46;;;;;;;2.17;0.60;;;;;;;4.26;65.61;96981.97;8221617;28;20243;-87
2021/11/30 11:13:50;;;;;;;2.43;0.60;;;;;;;4.27;65.48;96979.34;8222215;28;20290;-88
2021/11/30 11:17:55;;;;;;;0.63;0.60;;;;;;;4.54;65.08;96986.97;8227970;28;20241;-87
2021/11/30 11:22:14;;;;;;;1.40;1.30;;;;;;;4.31;65.74;96990.34;8220809;28;20239;-85
2021/11/30 11:26:25;;;;;;;1.37;1.27;;;;;;;4.26;65.79;96975.09;8218877;28;20408;-86
2021/11/30 11:30:28;;;;;;;1.50;1.40;;;;;;;4.39;65.71;96977.25;8221349;28;20419;-88
2021/11/30 11:34:33;;;;;;;5.33;4.53;;;;;;;4.75;64.72;96964.81;8221865;28;20242;-84
2021/11/30 11:38:40;;;;;;;1.80;1.70;;;;;;;4.57;64.90;96963.78;8223028;28;20235;-82
2021/11/30 11:42:43;;;;;;;2.43;1.77;;;;;;;4.47;65.65;96960.72;8220555;28;20239;-84
2021/11/30 11:46:48;;;;;;;2.20;1.50;;;;;;;4.33;66.13;96959.53;8219048;28;20261;-83
2021/11/30 11:50:53;;;;;;;0.80;0.80;;;;;;;4.44;66.14;96949.75;8219295;28;20258;-86
2021/11/30 11:55:01;;;;;;;0.80;0.60;;;;;;;4.58;65.35;96965.44;8222225;28;20558;-83
2021/11/30 11:59:10;;;;;;;0.77;0.57;;;;;;;4.46;65.64;96964.16;8222833;28;20300;-82
2021/11/30 12:03:13;;;;;;;0.60;0.60;;;;;;;4.50;66.38;96967.47;8235835;28;20535;-84
2021/11/30 12:07:17;;;;;;;0.97;0.50;;;;;;;4.61;65.58;96956.81;8250319;28;20513;-83
2021/11/30 12:16:05;;;;;;;1.37;0.60;;;;;;;6.21;61.75;96937.66;8380569;27;20608;-75
2021/11/30 12:20:11;;;;;;;1.27;1.17;;;;;;;5.41;63.63;96940.94;8371737;28;20387;-74
2021/11/30 12:24:14;;;;;;;0.87;0.87;;;;;;;5.07;64.05;96947.38;8374162;28;20254;-78
2021/11/30 12:28:38;;;;;;;1.33;0.70;;;;;;;4.74;65.02;96940.09;8374415;28;20228;-81
2021/11/30 12:32:42;;;;;;;0.57;0.57;;;;;;;4.73;65.51;96933.28;8372656;28;20318;-81
2021/11/30 12:36:45;;;;;;;0.87;0.60;;;;;;;4.60;65.54;96940.56;8371540;28;20223;-81
2021/11/30 12:40:49;;;;;;;1.10;0.90;;;;;;;4.67;65.92;96946.34;8374043;28;20247;-81
2021/11/30 12:44:54;;;;;;;0.80;0.80;;;;;;;4.76;65.75;96938.31;8373656;28;20231;-82
2021/11/30 12:48:58;;;;;;;1.60;0.77;;;;;;;4.47;66.72;96936.78;8373240;28;20238;-79
2021/11/30 12:53:03;;;;;;;1.00;0.60;;;;;;;4.61;66.17;96934.56;8372836;28;20238;-76
2021/11/30 12:57:07;;;;;;;1.00;0.77;;;;;;;4.83;65.82;96928.63;8370630;28;20216;-79
2021/11/30 13:01:23;;;;;;;1.00;0.67;;;;;;;4.48;66.95;96928.22;8373436;28;20237;-76
2021/11/30 13:05:31;;;;;;;0.60;0.60;;;;;;;4.60;66.98;96938.00;8371035;28;20228;-76
2021/11/30 13:09:39;;;;;;;1.13;0.70;;;;;;;4.36;67.37;96932.06;8373960;28;20450;-76
2021/11/30 13:13:43;;;;;;;1.53;0.87;;;;;;;4.66;66.49;96935.25;8373504;28;20418;-78
2021/11/30 13:17:47;;;;;;;0.80;0.63;;;;;;;4.72;66.51;96941.84;8373720;28;20276;-77
2021/11/30 13:21:58;;;;;;;0.70;0.70;;;;;;;4.68;66.66;96932.59;8373868;28;20234;-76
2021/11/30 13:26:01;;;;;;;1.10;0.80;;;;;;;4.71;66.39;96935.06;8358064;28;20404;-75
2021/11/30 13:30:06;;;;;;;1.07;0.60;;;;;;;4.57;67.04;96948.41;8351308;28;20243;-75
2021/11/30 13:34:15;;;;;;;0.63;0.63;;;;;;;4.60;66.62;96927.75;8350864;28;20228;-75
2021/11/30 13:38:22;;;;;;;3.90;2.70;;;;;;;4.60;67.44;96919.22;8351418;28;20236;-74
2021/11/30 13:42:25;;;;;;;2.57;1.87;;;;;;;4.72;66.83;96933.31;8351031;28;20254;-75
2021/11/30 13:46:30;;;;;;;1.60;1.50;;;;;;;4.83;66.52;96918.38;8350812;28;20224;-75
2021/11/30 13:50:37;;;;;;;0.87;0.80;;;;;;;4.69;66.50;96909.47;8350679;28;20308;-73
2021/11/30 13:54:48;;;;;;;1.40;1.30;;;;;;;4.68;66.70;96920.63;8350201;28;20236;-75
2021/11/30 13:58:53;;;;;;;1.47;1.00;;;;;;;4.67;67.44;96913.81;8350030;28;20442;-75
2021/11/30 14:02:56;;;;;;;1.50;0.70;;;;;;;4.85;66.84;96917.41;8349930;28;20542;-75
2021/11/30 14:07:02;;;;;;;0.80;0.80;;;;;;;4.86;66.19;96936.22;8346843;28;20232;-75
2021/11/30 14:11:06;;;;;;;2.33;1.93;;;;;;;4.97;66.54;96920.41;8349488;28;20513;-75
2021/11/30 14:15:10;;;;;;;0.80;0.80;;;;;;;4.94;66.11;96923.09;8348424;28;20407;-71
2021/11/30 14:19:13;;;;;;;1.63;1.53;;;;;;;4.81;66.74;96926.13;8348707;28;20291;-71
2021/11/30 14:23:17;;;;;;;1.37;0.93;;;;;;;4.81;66.64;96936.38;8348538;28;20426;-74
2021/11/30 14:27:22;;;;;;;2.13;1.20;;;;;;;4.83;66.46;96939.72;8349287;28;20232;-75
2021/11/30 14:31:25;;;;;;;1.70;1.20;;;;;;;4.89;66.74;96944.63;8348865;28;20407;-74
2021/11/30 14:35:38;;;;;;;1.13;1.07;;;;;;;4.74;66.78;96937.53;8347642;28;20236;-77
2021/11/30 14:39:51;;;;;;;0.90;0.90;;;;;;;4.82;66.62;96943.19;8348150;28;20580;-78
2021/11/30 14:43:55;;;;;;;1.40;0.70;;;;;;;4.85;66.15;96916.56;8348862;28;20236;-76
2021/11/30 14:48:11;;;;;;;1.43;1.30;;;;;;;4.92;65.90;96935.97;8348695;28;20231;-78
2021/11/30 14:52:19;;;;;;;1.30;1.20;;;;;;;5.03;66.02;96930.44;8348154;28;20538;-76
2021/11/30 14:56:28;;;;;;;0.70;0.70;;;;;;;4.92;66.30;96910.31;8348264;28;20236;-77
2021/11/30 15:00:34;;;;;;;0.70;0.70;;;;;;;5.07;66.00;96916.59;8348229;28;20278;-79
2021/11/30 15:04:37;;;;;;;1.80;1.00;;;;;;;5.11;65.69;96925.84;8347988;28;20236;-79
2021/11/30 15:08:51;;;;;;;1.83;1.30;;;;;;;4.94;66.40;96933.38;8348184;28;20229;-78
2021/11/30 15:13:08;;;;;;;3.83;2.57;;;;;;;4.80;66.79;96932.16;8347957;28;20243;-78
2021/11/30 15:17:14;;;;;;;3.20;1.47;;;;;;;5.09;65.50;96950.72;8347543;28;20239;-78
2021/11/30 15:21:17;;;;;;;1.93;1.07;;;;;;;5.31;65.51;96937.88;8347864;28;20236;-76
2021/11/30 15:25:20;;;;;;;1.37;1.00;;;;;;;5.12;65.81;96954.91;8347055;28;20240;-76
2021/11/30 15:29:25;;;;;;;1.20;0.70;;;;;;;5.13;65.89;96951.47;8344208;28;20232;-76
2021/11/30 15:33:29;;;;;;;0.90;0.60;;;;;;;5.09;65.79;96937.91;8347341;28;20383;-75
2021/11/30 15:37:32;;;;;;;2.03;1.00;;;;;;;5.00;65.74;96972.44;8347189;28;20239;-73
2021/11/30 15:41:37;;;;;;;0.80;0.80;;;;;;;5.28;65.72;96979.91;8347251;28;20550;-72
2021/11/30 15:45:40;;;;;;;0.93;0.73;;;;;;;5.16;65.86;96959.00;8346040;28;20244;-73
2021/11/30 15:49:44;;;;;;;1.37;0.77;;;;;;;5.31;65.33;96975.56;8346655;28;20568;-74
2021/11/30 15:53:47;;;;;;;0.87;0.80;;;;;;;5.12;65.85;96968.56;8346762;28;20231;-73
2021/11/30 15:57:51;;;;;;;2.53;1.57;;;;;;;5.24;65.84;96980.13;8346788;28;20234;-74
2021/11/30 16:01:53;;;;;;;1.00;0.70;;;;;;;5.30;65.68;96954.19;8346886;28;20232;-73
2021/11/30 16:05:59;;;;;;;0.63;0.63;;;;;;;5.37;65.39;96957.34;8334670;28;20228;-74
2021/11/30 16:10:03;;;;;;;1.63;0.80;;;;;;;5.22;65.67;96976.78;8325097;28;20304;-74
2021/11/30 16:14:07;;;;;;;0.67;0.67;;;;;;;5.16;65.94;96974.41;8313028;28;20244;-73
2021/11/30 16:18:10;;;;;;;0.70;0.70;;;;;;;5.05;66.82;96975.66;8313918;28;20239;-73
2021/11/30 16:22:15;;;;;;;1.83;0.90;;;;;;;5.04;66.93;96970.59;8334122;28;20235;-73
2021/11/30 16:26:18;;;;;;;1.03;0.70;;;;;;;5.19;66.75;96977.69;8346333;28;20438;-74
2021/11/30 16:30:21;;;;;;;1.23;1.13;;;;;;;5.21;66.91;96993.06;8346129;28;20637;-75
2021/11/30 16:34:24;;;;;;;0.70;0.70;;;;;;;4.93;67.44;96996.69;8346943;28;20523;-75
2021/11/30 16:38:28;;;;;;;0.70;0.70;;;;;;;5.01;67.36;96999.78;8346279;28;20303;-74
2021/11/30 16:42:31;;;;;;;1.60;0.93;;;;;;;4.98;67.49;96989.63;8346523;28;20335;-77
2021/11/30 16:46:35;;;;;;;1.10;1.00;;;;;;;5.18;67.25;96996.59;8346150;28;20527;-75
2021/11/30 16:50:41;;;;;;;1.80;1.50;;;;;;;5.17;67.65;96999.19;8346629;28;20283;-75
2021/11/30 16:54:45;;;;;;;1.43;1.27;;;;;;;5.09;67.58;96986.66;8345553;28;20299;-74
2021/11/30 16:58:48;;;;;;;0.80;0.80;;;;;;;5.22;67.24;97002.44;8344982;28;20232;-75
2021/11/30 17:02:51;;;;;;;1.00;1.00;;;;;;;5.28;67.33;96994.50;8348834;28;20287;-75
2021/11/30 17:06:55;;;;;;;2.07;1.80;;;;;;;5.23;67.18;96996.38;8351319;28;20538;-73
2021/11/30 17:10:59;;;;;;;2.03;1.30;;;;;;;5.34;67.45;97011.41;8351129;28;20545;-74
2021/11/30 17:15:03;;;;;;;1.07;0.77;;;;;;;5.16;67.56;97018.06;8350673;28;20240;-74
2021/11/30 17:19:06;;;;;;;1.47;1.27;;;;;;;5.45;66.82;97024.66;8350428;28;20232;-74
2021/11/30 17:23:13;;;;;;;1.47;1.10;;;;;;;5.30;67.43;97018.38;8351052;28;20228;-77
2021/11/30 17:27:17;;;;;;;1.33;1.23;;;;;;;5.21;68.03;97024.69;8351511;28;20294;-77
2021/11/30 17:31:20;;;;;;;3.20;1.60;;;;;;;5.37;68.00;97029.22;8351122;28;20527;-76
2021/11/30 17:35:24;;;;;;;2.80;0.90;;;;;;;5.20;67.68;97043.56;8351269;28;20249;-73
2021/11/30 17:39:27;;;;;;;1.27;1.10;;;;;;;5.52;67.41;97026.09;8350949;28;20394;-77
2021/11/30 17:43:34;;;;;;;0.87;0.87;;;;;;;5.66;67.10;97018.66;8350710;28;20232;-74
2021/11/30 17:47:38;;;;;;;1.10;1.00;;;;;;;5.55;66.90;97040.53;8350594;28;20317;-74
2021/11/30 17:51:56;;;;;;;0.97;0.97;;;;;;;5.40;67.73;97026.56;8350549;28;20609;-74
2021/11/30 17:55:59;;;;;;;1.53;1.10;;;;;;;5.53;67.47;97053.44;8350588;28;20232;-75
2021/11/30 18:00:04;;;;;;;1.30;1.20;;;;;;;5.41;67.77;97046.22;8350412;28;20246;-74
2021/11/30 18:04:08;;;;;;;2.17;1.93;;;;;;;5.52;67.91;97036.38;8349945;28;20231;-74
2021/11/30 18:08:11;;;;;;;2.30;1.10;;;;;;;5.56;66.98;97037.91;8350189;28;20239;-74
2021/11/30 18:12:14;;;;;;;2.30;2.10;;;;;;;5.68;66.72;97040.00;8349734;28;20243;-74
2021/11/30 18:16:18;;;;;;;1.30;1.20;;;;;;;5.40;67.47;97029.94;8349804;28;20240;-74
2021/11/30 18:20:21;;;;;;;3.93;1.90;;;;;;;5.53;66.91;97025.19;8349448;28;20253;-74
2021/11/30 18:24:25;;;;;;;2.97;2.23;;;;;;;5.61;66.46;97037.72;8349556;28;20283;-74
2021/11/30 18:28:31;;;;;;;2.47;2.27;;;;;;;5.61;66.37;97048.81;8349779;28;20575;-71
2021/11/30 18:32:35;;;;;;;2.57;2.07;;;;;;;5.69;66.71;97053.66;8349824;28;20235;-73
2021/11/30 18:36:39;;;;;;;2.67;1.10;;;;;;;5.64;67.00;97053.03;8348058;28;20232;-73
2021/11/30 18:40:42;;;;;;;0.90;0.90;;;;;;;5.52;67.71;97056.91;8348372;28;20228;-74
2021/11/30 18:44:46;;;;;;;1.67;0.93;;;;;;;5.58;66.85;97058.38;8348280;28;20228;-74
2021/11/30 18:48:51;;;;;;;3.57;2.37;;;;;;;5.66;66.93;97059.78;8348181;28;20232;-73
2021/11/30 18:52:54;;;;;;;23.83;21.53;;;;;;;7.35;72.22;97071.56;8348349;28;20232;-74
2021/11/30 18:56:57;;;;;;;10.67;7.83;;;;;;;8.34;65.49;97083.19;8347050;28;20295;-73
2021/11/30 19:01:00;;;;;;;2.60;2.40;;;;;;;6.94;62.96;97081.97;8348430;28;20271;-68
2021/11/30 19:05:07;;;;;;;2.57;2.00;;;;;;;6.51;63.93;97084.66;8348522;28;20430;-67
2021/11/30 19:09:10;;;;;;;1.30;0.90;;;;;;;6.04;64.89;97096.00;8340137;28;20320;-67
2021/11/30 19:13:13;;;;;;;1.07;0.97;;;;;;;5.92;65.60;97101.59;8347836;28;20270;-68
2021/11/30 19:17:17;;;;;;;0.90;0.90;;;;;;;6.06;66.00;97099.34;8347367;28;20247;-67
2021/11/30 19:21:21;;;;;;;4.10;2.10;;;;;;;6.16;65.33;97086.94;8346818;28;20229;-67
2021/11/30 19:25:24;;;;;;;0.90;0.80;;;;;;;6.03;65.41;97104.59;8346759;28;20242;-66
2021/11/30 19:29:28;;;;;;;1.60;1.50;;;;;;;5.99;65.97;97104.78;8346907;28;20232;-66
2021/11/30 19:33:32;;;;;;;1.20;1.10;;;;;;;5.97;66.23;97106.59;8346846;28;20228;-67
2021/11/30 19:37:38;;;;;;;0.77;0.77;;;;;;;6.11;65.96;97124.03;8346681;28;20259;-67
2021/11/30 19:41:42;;;;;;;0.70;0.70;;;;;;;5.88;66.34;97123.16;8344359;28;20228;-67